Time;durP1;ratioP1;P1;durP2;ratioP2;P2;SDS_P1;SDS_P2;PMS_P1;PMS_P2;Temp;Humidity;BMP_temperature;BMP_pressure;BME280_temperature;BME280_humidity;BME280_pressure;Samples;Min_cycle;Max_cycle;Signal;HPM_P1;HPM_P2
2022/07/21 00:00:28;;;;;;;41.08;38.67;;;;;;;18.16;100.00;101001.13;5032285;28;20053;-83
2022/07/21 00:02:57;;;;;;;35.45;33.28;;;;;;;17.96;100.00;100992.81;5034157;28;20061;-83
2022/07/21 00:05:25;;;;;;;38.20;35.78;;;;;;;17.80;100.00;100997.16;5033712;28;20049;-84
2022/07/21 00:07:53;;;;;;;34.65;32.53;;;;;;;18.02;100.00;101002.56;5033627;28;20060;-83
2022/07/21 00:10:22;;;;;;;36.85;34.13;;;;;;;17.40;100.00;100998.94;5032902;28;20041;-83
2022/07/21 00:12:49;;;;;;;33.78;31.30;;;;;;;17.17;100.00;100993.72;5033950;28;20037;-83
2022/07/21 00:15:17;;;;;;;35.58;33.42;;;;;;;17.59;100.00;100993.31;5033514;28;20053;-84
2022/07/21 00:17:45;;;;;;;43.90;41.45;;;;;;;17.33;100.00;100995.59;5034312;28;20493;-84
2022/07/21 00:20:16;;;;;;;39.40;37.05;;;;;;;17.36;100.00;101000.47;5034203;28;20064;-83
2022/07/21 00:22:43;;;;;;;35.30;32.92;;;;;;;17.69;100.00;101003.41;5033221;28;20065;-84
2022/07/21 00:25:11;;;;;;;35.47;32.95;;;;;;;17.89;100.00;100997.56;5034381;28;20049;-83
2022/07/21 00:27:40;;;;;;;38.88;36.30;;;;;;;17.30;100.00;100997.97;5034365;28;20060;-83
2022/07/21 00:30:09;;;;;;;39.45;37.05;;;;;;;17.38;100.00;100994.88;5034316;28;20490;-83
2022/07/21 00:32:36;;;;;;;36.90;34.50;;;;;;;17.12;100.00;100999.81;5033882;28;20076;-83
2022/07/21 00:35:04;;;;;;;36.22;33.83;;;;;;;17.70;100.00;100996.97;5034279;28;20060;-83
2022/07/21 00:37:32;;;;;;;35.42;33.25;;;;;;;17.40;100.00;100992.78;5033576;28;20049;-84
2022/07/21 00:39:59;;;;;;;36.15;33.90;;;;;;;17.01;100.00;100994.53;5031448;28;20055;-83
2022/07/21 00:42:29;;;;;;;39.08;36.88;;;;;;;17.45;100.00;100990.16;5034138;28;20115;-82
2022/07/21 00:44:57;;;;;;;41.65;39.00;;;;;;;17.54;100.00;100990.56;5034756;28;20371;-84
2022/07/21 00:47:25;;;;;;;50.63;47.72;;;;;;;17.22;100.00;100995.69;5033669;28;20111;-84
2022/07/21 00:49:51;;;;;;;46.50;43.88;;;;;;;16.92;100.00;100991.44;5034104;28;20130;-83
2022/07/21 00:52:19;;;;;;;45.40;42.70;;;;;;;17.37;100.00;100982.53;5033470;28;20052;-83
2022/07/21 00:54:48;;;;;;;41.00;38.60;;;;;;;17.40;100.00;100990.09;5034307;28;20046;-83
2022/07/21 00:57:15;;;;;;;41.25;38.40;;;;;;;17.27;100.00;100980.47;5033204;28;20474;-83
2022/07/21 00:59:44;;;;;;;48.22;45.65;;;;;;;17.45;100.00;100986.66;5033390;28;20049;-82
2022/07/21 01:02:11;;;;;;;46.08;43.38;;;;;;;17.48;100.00;100980.78;5033235;28;20045;-82
2022/07/21 01:04:38;;;;;;;46.22;43.63;;;;;;;17.68;100.00;100978.41;5033144;28;20080;-83
2022/07/21 01:07:06;;;;;;;45.17;42.13;;;;;;;16.92;100.00;100975.31;5032957;28;20049;-83
2022/07/21 01:09:33;;;;;;;42.33;39.67;;;;;;;17.28;100.00;100978.63;5034309;28;20386;-82
2022/07/21 01:12:02;;;;;;;46.95;43.95;;;;;;;17.25;100.00;100979.09;5033555;28;20060;-84
2022/07/21 01:14:30;;;;;;;45.20;42.00;;;;;;;17.31;100.00;100976.25;5033401;28;20060;-83
2022/07/21 01:16:57;;;;;;;47.60;44.75;;;;;;;17.26;100.00;100978.03;5033468;28;20053;-82
2022/07/21 01:19:24;;;;;;;41.40;38.78;;;;;;;16.98;100.00;100973.56;5033549;28;20093;-83
2022/07/21 01:21:52;;;;;;;39.80;36.92;;;;;;;16.67;100.00;100971.09;5033366;28;20041;-83
2022/07/21 01:24:19;;;;;;;44.30;41.60;;;;;;;17.03;100.00;100976.31;5033913;28;20179;-82
2022/07/21 01:26:48;;;;;;;57.72;54.53;;;;;;;16.99;100.00;100978.66;5033394;28;20528;-82
2022/07/21 01:29:16;;;;;;;45.65;42.78;;;;;;;16.95;100.00;100969.47;5032776;28;20046;-83
2022/07/21 01:31:45;;;;;;;41.58;39.05;;;;;;;17.10;100.00;100976.97;5027820;28;20053;-82
2022/07/21 01:34:13;;;;;;;36.95;34.38;;;;;;;16.72;100.00;100979.22;5033436;28;20478;-83
2022/07/21 01:36:39;;;;;;;39.63;37.13;;;;;;;16.80;100.00;100969.22;5033041;28;20045;-82
2022/07/21 01:41:53;;;;;;;34.83;32.38;;;;;;;16.93;100.00;100980.44;5030895;28;20052;-84
2022/07/21 01:44:20;;;;;;;40.78;38.28;;;;;;;16.97;100.00;100983.44;5033277;28;20107;-83
2022/07/21 01:46:49;;;;;;;39.88;37.47;;;;;;;16.86;100.00;100979.78;5032932;28;20049;-83
2022/07/21 01:49:17;;;;;;;37.90;35.63;;;;;;;16.48;100.00;100978.50;5033064;28;20418;-83
2022/07/21 01:51:45;;;;;;;39.20;36.40;;;;;;;16.38;100.00;100982.88;5032492;28;20497;-83
2022/07/21 01:54:13;;;;;;;39.38;36.88;;;;;;;16.74;100.00;100981.69;5037379;28;20041;-83
2022/07/21 01:56:40;;;;;;;47.75;44.65;;;;;;;16.48;100.00;100981.19;5036965;28;20474;-84
2022/07/21 01:59:07;;;;;;;55.40;51.90;;;;;;;16.47;100.00;100990.28;5036664;28;20474;-84
2022/07/21 02:01:36;;;;;;;44.90;42.08;;;;;;;16.18;100.00;100993.97;5131526;23;20042;-82
2022/07/21 02:04:04;;;;;;;40.30;37.60;;;;;;;15.93;100.00;100989.72;4998958;28;20050;-82
2022/07/21 02:06:33;;;;;;;42.60;39.90;;;;;;;16.13;100.00;100986.66;5006295;28;20042;-82
2022/07/21 02:09:09;;;;;;;42.33;39.50;;;;;;;16.34;100.00;100982.53;5013755;28;20054;-83
2022/07/21 02:11:38;;;;;;;53.90;51.00;;;;;;;16.58;100.00;100983.28;5016599;28;20049;-83
2022/07/21 02:14:12;;;;;;;51.47;48.53;;;;;;;16.71;100.00;100976.81;5018878;28;20057;-83
2022/07/21 02:16:45;;;;;;;51.55;48.28;;;;;;;16.62;100.00;100973.69;5015872;28;20045;-84
2022/07/21 02:19:17;;;;;;;48.15;45.08;;;;;;;16.88;100.00;100976.84;5012279;28;20053;-84
2022/07/21 02:21:45;;;;;;;45.10;42.10;;;;;;;17.13;100.00;100987.22;4999010;28;20050;-83
2022/07/21 02:24:13;;;;;;;45.08;42.00;;;;;;;17.46;100.00;100999.84;5011316;28;20050;-83
2022/07/21 02:26:42;;;;;;;39.53;37.05;;;;;;;16.87;100.00;100985.97;5013884;28;20054;-84
2022/07/21 02:29:10;;;;;;;41.28;38.47;;;;;;;17.02;100.00;100991.59;5009613;28;20043;-83
2022/07/21 02:31:41;;;;;;;50.33;47.35;;;;;;;17.53;100.00;100992.44;5016092;28;20470;-84
2022/07/21 02:34:13;;;;;;;44.13;41.60;;;;;;;17.48;100.00;100983.47;5011063;28;20046;-83
2022/07/21 02:36:41;;;;;;;46.92;44.08;;;;;;;17.29;100.00;100989.09;5010111;28;20467;-82
2022/07/21 02:39:13;;;;;;;55.90;51.55;;;;;;;17.13;100.00;100990.72;5014241;28;20050;-82
2022/07/21 02:41:43;;;;;;;55.85;52.67;;;;;;;17.00;100.00;100992.88;5010122;28;20129;-83
2022/07/21 02:44:12;;;;;;;55.60;52.20;;;;;;;17.02;100.00;100994.28;5015949;28;20045;-82
2022/07/21 02:46:38;;;;;;;43.80;40.85;;;;;;;16.94;100.00;100992.81;5016664;28;20041;-83
2022/07/21 02:49:05;;;;;;;54.15;51.28;;;;;;;16.72;100.00;100992.63;5013463;28;20060;-82
2022/07/21 02:51:32;;;;;;;44.17;41.25;;;;;;;16.66;100.00;100990.09;5012495;28;20050;-83
2022/07/21 02:53:59;;;;;;;46.10;43.38;;;;;;;17.04;100.00;100994.84;5011604;28;20045;-82
2022/07/21 02:56:26;;;;;;;45.92;43.22;;;;;;;16.51;100.00;100993.31;5011641;28;20050;-82
2022/07/21 02:58:58;;;;;;;39.42;37.05;;;;;;;16.74;100.00;100994.28;5008259;28;20050;-83
2022/07/21 03:01:24;;;;;;;40.78;38.17;;;;;;;16.45;100.00;101002.28;5008958;28;20050;-81
2022/07/21 03:03:51;;;;;;;36.58;34.22;;;;;;;16.70;100.00;101002.81;5016109;28;20046;-82
2022/07/21 03:06:20;;;;;;;37.50;35.10;;;;;;;16.55;100.00;101004.34;5005986;28;20038;-82
2022/07/21 03:08:47;;;;;;;34.35;32.03;;;;;;;16.54;100.00;101008.09;5007929;28;20494;-82
2022/07/21 03:11:15;;;;;;;39.60;36.63;;;;;;;16.48;100.00;101005.31;5007413;28;20437;-82
2022/07/21 03:13:42;;;;;;;39.65;36.83;;;;;;;16.09;100.00;101004.22;5018495;28;20485;-82
2022/07/21 03:16:11;;;;;;;33.25;31.25;;;;;;;16.06;100.00;101017.28;5009298;28;20054;-82
2022/07/21 03:18:51;;;;;;;30.35;28.23;;;;;;;15.93;100.00;101015.69;5003647;28;20054;-82
2022/07/21 03:21:23;;;;;;;31.00;28.92;;;;;;;16.00;100.00;101025.22;5005274;28;20042;-82
2022/07/21 03:23:49;;;;;;;33.67;31.55;;;;;;;16.55;100.00;101017.75;4997683;28;20047;-82
2022/07/21 03:26:18;;;;;;;33.60;31.20;;;;;;;16.64;100.00;101017.19;4997897;28;20463;-82
2022/07/21 03:28:46;;;;;;;34.15;31.88;;;;;;;16.62;100.00;101005.06;5011173;28;20042;-81
2022/07/21 03:31:17;;;;;;;32.15;30.05;;;;;;;16.74;100.00;101010.38;5004659;28;20065;-82
2022/07/21 03:33:50;;;;;;;31.80;29.33;;;;;;;16.41;100.00;101012.69;4998339;28;20052;-82
2022/07/21 03:36:18;;;;;;;31.30;29.10;;;;;;;16.53;100.00;101011.84;5011102;28;20053;-82
2022/07/21 03:38:44;;;;;;;31.63;29.60;;;;;;;16.49;100.00;101015.00;5010844;28;20046;-82
2022/07/21 03:41:12;;;;;;;33.22;30.88;;;;;;;16.72;100.00;101008.72;5014604;28;20049;-82
2022/07/21 03:43:40;;;;;;;30.35;28.23;;;;;;;17.02;100.00;101031.03;5015386;28;20046;-82
2022/07/21 03:46:10;;;;;;;36.83;33.90;;;;;;;17.18;100.00;101031.03;4999820;28;20069;-83
2022/07/21 03:48:39;;;;;;;32.70;30.38;;;;;;;17.29;100.00;101040.09;4999625;28;20072;-83
2022/07/21 03:51:07;;;;;;;33.67;31.33;;;;;;;17.58;100.00;101034.69;5010304;28;20053;-84
2022/07/21 03:53:34;;;;;;;31.63;29.70;;;;;;;17.83;100.00;101037.78;5007351;28;20057;-83
2022/07/21 03:56:02;;;;;;;30.98;28.92;;;;;;;17.74;100.00;101044.59;5010530;28;20054;-82
2022/07/21 03:58:38;;;;;;;30.83;28.63;;;;;;;17.97;100.00;101057.06;5014895;28;20386;-83
2022/07/21 04:01:05;;;;;;;32.90;30.80;;;;;;;17.86;100.00;101057.97;5016162;28;20121;-81
2022/07/21 04:03:33;;;;;;;31.45;29.48;;;;;;;17.82;100.00;101052.28;5000595;28;20046;-82
2022/07/21 04:06:04;;;;;;;33.47;31.48;;;;;;;17.99;100.00;101062.97;5006858;28;20379;-82
2022/07/21 04:08:35;;;;;;;32.22;30.10;;;;;;;18.11;100.00;101070.13;5018037;28;20054;-83
2022/07/21 04:11:03;;;;;;;36.80;33.38;;;;;;;18.32;100.00;101058.59;5017563;28;20046;-83
2022/07/21 04:13:30;;;;;;;31.13;28.70;;;;;;;18.49;100.00;101064.75;5013127;28;20061;-82
2022/07/21 04:15:57;;;;;;;30.95;28.80;;;;;;;18.29;100.00;101069.84;5006657;28;20616;-82
2022/07/21 04:18:24;;;;;;;33.70;31.70;;;;;;;18.33;100.00;101070.97;5014478;28;20045;-82
2022/07/21 04:20:52;;;;;;;31.35;29.30;;;;;;;18.49;100.00;101066.63;5011513;28;20449;-83
2022/07/21 04:23:23;;;;;;;35.85;33.17;;;;;;;18.06;100.00;101065.50;5009610;28;20383;-83
2022/07/21 04:25:51;;;;;;;32.63;30.13;;;;;;;18.37;100.00;101074.00;5012958;28;20056;-82
2022/07/21 04:28:18;;;;;;;31.52;29.35;;;;;;;18.58;100.00;101065.13;5011743;28;20077;-83
2022/07/21 04:30:47;;;;;;;32.88;30.77;;;;;;;18.91;100.00;101066.88;5014414;28;20463;-83
2022/07/21 04:33:14;;;;;;;30.83;28.83;;;;;;;19.02;100.00;101067.78;5010259;28;20053;-82
2022/07/21 04:35:41;;;;;;;32.38;30.27;;;;;;;19.11;100.00;101054.69;5010415;28;20049;-82
2022/07/21 04:38:10;;;;;;;30.80;28.70;;;;;;;19.18;100.00;101060.66;5013312;28;20046;-82
2022/07/21 04:40:39;;;;;;;31.00;28.50;;;;;;;19.29;100.00;101051.63;5004532;28;20042;-82
2022/07/21 04:43:06;;;;;;;32.60;30.38;;;;;;;19.35;100.00;101055.97;5007865;28;20054;-82
2022/07/21 04:45:34;;;;;;;31.58;29.48;;;;;;;19.55;100.00;101058.03;5005465;28;20498;-82
2022/07/21 04:48:02;;;;;;;29.67;27.75;;;;;;;19.53;100.00;101062.06;5022905;28;20045;-82
2022/07/21 04:50:29;;;;;;;30.90;28.60;;;;;;;19.81;100.00;101053.66;5006286;28;20128;-82
2022/07/21 04:52:56;;;;;;;34.85;32.15;;;;;;;19.85;100.00;101057.50;5005677;28;20134;-82
2022/07/21 04:55:23;;;;;;;35.22;32.80;;;;;;;20.09;100.00;101060.59;5011221;28;20390;-82
2022/07/21 04:57:53;;;;;;;34.83;32.05;;;;;;;20.38;100.00;101067.47;5018219;28;20046;-82
2022/07/21 05:00:24;;;;;;;33.60;31.20;;;;;;;20.44;100.00;101063.72;5006013;28;20470;-83
2022/07/21 05:02:53;;;;;;;35.78;33.30;;;;;;;20.66;100.00;101066.28;5008188;28;20363;-80
2022/07/21 05:05:20;;;;;;;35.42;33.15;;;;;;;20.84;100.00;101067.69;5006368;28;20057;-81
2022/07/21 05:07:48;;;;;;;40.22;38.03;;;;;;;21.07;100.00;101072.59;5019268;28;20049;-82
2022/07/21 05:10:17;;;;;;;38.50;36.20;;;;;;;21.08;100.00;101073.41;5002145;28;20133;-82
2022/07/21 05:12:44;;;;;;;32.70;30.48;;;;;;;21.08;100.00;101078.81;5004199;28;20049;-82
2022/07/21 05:15:13;;;;;;;33.63;31.50;;;;;;;21.37;100.00;101076.47;5000588;28;20042;-80
2022/07/21 05:17:42;;;;;;;34.80;32.75;;;;;;;21.58;100.00;101077.28;5009145;28;20050;-82
2022/07/21 05:20:12;;;;;;;32.97;30.65;;;;;;;21.56;100.00;101079.44;5009097;28;20065;-83
2022/07/21 05:22:40;;;;;;;37.88;35.58;;;;;;;21.63;100.00;101082.66;5006451;28;20042;-81
2022/07/21 05:25:09;;;;;;;33.20;31.08;;;;;;;21.82;100.00;101074.81;5006743;28;20446;-82
2022/07/21 05:27:36;;;;;;;36.22;34.13;;;;;;;21.73;100.00;101083.47;5011823;28;20050;-81
2022/07/21 05:30:11;;;;;;;34.95;32.50;;;;;;;22.10;100.00;101086.94;5008025;28;20053;-82
2022/07/21 05:32:39;;;;;;;36.40;34.25;;;;;;;22.05;100.00;101082.34;5016312;28;20057;-82
2022/07/21 05:35:11;;;;;;;35.83;33.38;;;;;;;22.25;100.00;101086.94;5013660;28;20057;-83
2022/07/21 05:37:38;;;;;;;36.57;34.10;;;;;;;22.59;100.00;101086.25;5014373;28;20058;-83
2022/07/21 05:40:06;;;;;;;35.22;32.22;;;;;;;22.81;100.00;101084.00;5013221;28;20330;-81
2022/07/21 05:42:33;;;;;;;34.75;32.53;;;;;;;22.88;100.00;101091.81;5018147;28;20049;-82
2022/07/21 05:45:01;;;;;;;39.45;34.50;;;;;;;23.03;100.00;101091.75;5008835;28;20046;-82
2022/07/21 05:47:28;;;;;;;36.92;34.42;;;;;;;23.32;100.00;101088.31;5014623;28;20050;-82
2022/07/21 05:49:56;;;;;;;41.20;38.67;;;;;;;23.55;97.35;101090.31;5018205;28;20049;-82
2022/07/21 05:52:23;;;;;;;41.92;38.72;;;;;;;23.85;96.49;101088.44;5011110;28;20053;-82
2022/07/21 05:54:50;;;;;;;46.15;41.95;;;;;;;23.92;94.64;101086.19;5018960;28;20386;-82
2022/07/21 05:57:17;;;;;;;41.85;39.05;;;;;;;24.32;91.46;101091.47;5018307;28;20065;-82
2022/07/21 05:59:45;;;;;;;39.83;37.42;;;;;;;24.34;90.80;101092.81;5015283;28;20085;-82
2022/07/21 06:02:12;;;;;;;43.55;40.72;;;;;;;24.39;89.76;101081.91;5018308;28;20057;-82
2022/07/21 06:04:38;;;;;;;45.20;42.55;;;;;;;24.74;89.29;101089.91;5008037;28;20139;-82
2022/07/21 06:07:07;;;;;;;43.75;40.80;;;;;;;25.08;87.34;101086.97;5015741;28;20133;-82
2022/07/21 06:09:33;;;;;;;42.35;39.35;;;;;;;25.18;83.89;101089.59;5010013;28;20057;-82
2022/07/21 06:12:02;;;;;;;39.25;36.80;;;;;;;25.42;82.52;101092.22;5011994;28;20060;-82
2022/07/21 06:14:29;;;;;;;37.65;35.25;;;;;;;25.49;85.36;101087.19;5008819;28;20050;-82
2022/07/21 06:16:57;;;;;;;36.13;33.53;;;;;;;26.15;74.04;101090.69;5013784;28;20050;-82
2022/07/21 06:19:24;;;;;;;43.00;40.53;;;;;;;26.94;71.07;101087.69;5015395;28;20042;-82
2022/07/21 06:21:52;;;;;;;44.50;41.95;;;;;;;27.04;66.51;101086.66;5018339;28;20045;-81
2022/07/21 06:24:22;;;;;;;43.58;40.97;;;;;;;27.35;67.42;101081.31;5007319;28;20054;-81
2022/07/21 06:26:49;;;;;;;44.90;42.38;;;;;;;27.26;64.66;101085.06;5009219;28;20046;-80
2022/07/21 06:29:15;;;;;;;39.17;36.50;;;;;;;27.62;63.39;101079.53;5005036;28;20076;-81
2022/07/21 06:31:42;;;;;;;38.90;36.42;;;;;;;27.68;62.68;101080.22;5010259;28;20042;-82
2022/07/21 06:34:10;;;;;;;47.03;44.10;;;;;;;27.86;63.05;101062.84;5003733;28;20042;-81
2022/07/21 06:36:37;;;;;;;35.05;33.08;;;;;;;27.83;63.84;101088.03;5007257;28;20042;-81
2022/07/21 06:39:04;;;;;;;37.58;35.42;;;;;;;27.80;63.39;101075.81;5012703;28;20049;-82
2022/07/21 06:41:33;;;;;;;42.35;39.67;;;;;;;28.24;60.41;101076.81;5009674;28;20046;-81
2022/07/21 06:44:01;;;;;;;39.90;37.45;;;;;;;28.46;61.62;101072.41;5005377;28;20050;-83
2022/07/21 06:46:28;;;;;;;42.15;37.88;;;;;;;28.04;56.68;101067.25;5001799;28;20470;-81
2022/07/21 06:48:55;;;;;;;43.63;41.10;;;;;;;28.27;58.75;101083.56;5006542;28;20050;-82
2022/07/21 06:51:22;;;;;;;41.75;39.13;;;;;;;28.29;57.03;101075.84;5004265;28;20045;-81
2022/07/21 06:53:50;;;;;;;43.95;40.88;;;;;;;28.37;57.13;101071.56;5010340;28;20057;-82
2022/07/21 06:56:20;;;;;;;42.10;39.47;;;;;;;28.15;56.28;101065.06;5021516;28;20046;-81
2022/07/21 06:58:48;;;;;;;37.28;34.72;;;;;;;28.06;56.50;101070.50;5018847;28;20052;-82
2022/07/21 07:01:18;;;;;;;32.20;29.90;;;;;;;28.29;56.04;101076.69;5001519;28;20068;-82
2022/07/21 07:03:46;;;;;;;34.55;32.28;;;;;;;28.49;57.00;101066.31;5005458;28;20049;-82
2022/07/21 07:06:14;;;;;;;35.13;32.45;;;;;;;28.80;57.33;101057.19;5005585;28;20049;-82
2022/07/21 07:08:41;;;;;;;32.00;29.38;;;;;;;28.72;54.14;101054.13;5012977;28;20471;-80
2022/07/21 07:11:08;;;;;;;30.88;28.65;;;;;;;28.91;55.85;101044.81;5006883;28;20058;-80
2022/07/21 07:13:37;;;;;;;31.17;28.90;;;;;;;29.21;53.81;101046.59;5008429;28;20076;-82
2022/07/21 07:16:05;;;;;;;32.80;30.58;;;;;;;29.11;54.10;101037.91;5006553;28;20371;-80
2022/07/21 07:18:32;;;;;;;32.42;29.85;;;;;;;29.38;55.00;101028.53;5007697;28;20042;-80
2022/07/21 07:21:07;;;;;;;46.45;34.22;;;;;;;29.47;52.25;101028.50;5002549;28;20054;-82
2022/07/21 07:23:34;;;;;;;36.75;34.13;;;;;;;29.60;51.60;101030.25;5005455;28;20045;-81
2022/07/21 07:26:01;;;;;;;40.85;36.35;;;;;;;29.32;52.72;101022.44;5008063;28;20054;-82
2022/07/21 07:28:28;;;;;;;57.15;38.08;;;;;;;29.64;52.57;101018.34;5005988;28;20049;-82
2022/07/21 07:30:56;;;;;;;34.17;31.40;;;;;;;29.36;52.66;101017.91;5002831;28;20050;-81
2022/07/21 07:33:25;;;;;;;33.10;31.00;;;;;;;29.36;50.50;101019.84;5013042;28;20065;-81
2022/07/21 07:35:57;;;;;;;36.85;34.67;;;;;;;29.84;51.16;101025.03;5009371;28;20050;-81
2022/07/21 07:38:24;;;;;;;35.67;33.67;;;;;;;29.84;50.67;101024.25;5000892;28;20050;-80
2022/07/21 07:40:51;;;;;;;35.17;33.00;;;;;;;30.11;48.60;101015.56;5007623;28;20042;-80
2022/07/21 07:43:18;;;;;;;36.75;32.05;;;;;;;29.95;49.37;101017.25;5006836;28;20120;-81
2022/07/21 07:45:45;;;;;;;36.97;34.45;;;;;;;29.82;50.18;101021.03;5012811;28;20466;-80
2022/07/21 07:48:12;;;;;;;33.45;31.27;;;;;;;30.19;50.26;101021.31;5012923;28;20057;-80
2022/07/21 07:50:41;;;;;;;33.97;30.83;;;;;;;30.05;49.75;101014.16;5009464;28;20054;-84
2022/07/21 07:53:08;;;;;;;32.20;29.75;;;;;;;30.28;48.24;101013.88;5010082;28;20046;-80
2022/07/21 07:55:35;;;;;;;32.38;30.20;;;;;;;29.88;48.68;101016.97;5014213;28;20052;-82
2022/07/21 07:58:04;;;;;;;34.08;31.60;;;;;;;29.94;47.86;101017.59;5013249;28;20057;-80
2022/07/21 08:00:31;;;;;;;31.60;29.42;;;;;;;30.22;50.66;101015.19;5012450;28;20430;-84
2022/07/21 08:02:58;;;;;;;30.05;27.95;;;;;;;30.11;49.99;101021.03;5004490;28;20060;-82
2022/07/21 08:05:26;;;;;;;32.17;30.05;;;;;;;30.43;47.96;101009.75;5010979;28;20042;-82
2022/07/21 08:07:54;;;;;;;32.25;29.88;;;;;;;31.16;47.77;101023.03;5008992;28;20061;-81
2022/07/21 08:10:21;;;;;;;36.25;33.05;;;;;;;30.65;47.13;101011.34;5011949;28;20046;-80
2022/07/21 08:12:50;;;;;;;38.30;36.00;;;;;;;30.04;48.92;101012.53;5015742;28;20482;-82
2022/07/21 08:15:17;;;;;;;37.92;35.22;;;;;;;30.46;45.33;101009.88;5005987;28;20516;-82
2022/07/21 08:17:46;;;;;;;33.67;31.38;;;;;;;30.48;46.23;101009.56;5006627;28;20133;-81
2022/07/21 08:20:14;;;;;;;36.33;33.60;;;;;;;30.67;46.24;101007.13;5007487;28;20057;-81
2022/07/21 08:22:43;;;;;;;33.13;31.08;;;;;;;30.97;44.20;101007.88;5002958;28;20057;-82
2022/07/21 08:25:12;;;;;;;33.85;31.02;;;;;;;31.00;43.82;101000.91;5001328;28;20483;-80
2022/07/21 08:27:41;;;;;;;31.48;29.08;;;;;;;31.09;44.46;101001.63;5015168;28;20065;-81
2022/07/21 08:30:09;;;;;;;35.00;32.55;;;;;;;31.08;43.55;100999.25;5011590;28;20092;-81
2022/07/21 08:32:37;;;;;;;34.28;31.85;;;;;;;31.22;43.91;101000.50;5014138;28;20049;-80
2022/07/21 08:35:08;;;;;;;37.80;35.13;;;;;;;31.37;44.25;100998.31;5011909;28;20057;-81
2022/07/21 08:37:35;;;;;;;42.05;39.50;;;;;;;31.37;43.16;100988.13;5005118;28;20519;-82
2022/07/21 08:40:04;;;;;;;42.97;40.28;;;;;;;31.70;43.97;100990.00;5017117;28;20076;-80
2022/07/21 08:42:35;;;;;;;38.65;36.38;;;;;;;31.75;44.47;100988.97;5011729;28;20053;-79
2022/07/21 08:45:01;;;;;;;45.28;42.45;;;;;;;31.95;44.83;100988.06;5005227;28;20042;-80
2022/07/21 08:47:29;;;;;;;37.50;35.22;;;;;;;31.83;43.48;100991.63;5010893;28;20121;-80
2022/07/21 08:49:58;;;;;;;45.33;42.33;;;;;;;31.39;42.59;100996.03;5004771;28;20045;-81
2022/07/21 08:52:50;;;;;;;49.95;47.25;;;;;;;31.39;42.97;100996.81;5010110;28;20119;-81
2022/07/21 08:55:17;;;;;;;40.88;38.28;;;;;;;31.62;43.00;100999.13;4995697;28;20054;-83
2022/07/21 08:57:57;;;;;;;42.67;40.05;;;;;;;31.44;43.00;100988.38;5011591;28;20054;-84
2022/07/21 09:00:24;;;;;;;45.92;43.00;;;;;;;31.47;42.73;100976.72;5010864;28;20395;-80
2022/07/21 09:03:08;;;;;;;41.17;38.45;;;;;;;31.74;40.67;100984.59;5011397;28;20054;-82
2022/07/21 09:05:35;;;;;;;38.63;36.15;;;;;;;31.80;41.49;100983.25;5007742;28;20084;-80
2022/07/21 09:08:02;;;;;;;40.20;37.67;;;;;;;31.38;42.85;100986.19;5007793;28;20050;-82
2022/07/21 09:10:31;;;;;;;40.45;37.95;;;;;;;31.64;41.25;100981.19;5013837;28;20219;-81
2022/07/21 09:13:07;;;;;;;38.50;36.20;;;;;;;32.13;41.05;100983.91;4998687;28;20065;-81
2022/07/21 09:15:42;;;;;;;42.85;40.00;;;;;;;31.71;39.86;100964.13;5005401;28;20061;-81
2022/07/21 09:18:12;;;;;;;39.90;37.10;;;;;;;31.86;41.20;100968.13;5008363;28;20061;-80
2022/07/21 09:20:40;;;;;;;42.63;39.72;;;;;;;32.16;41.11;100968.69;5013867;28;20112;-82
2022/07/21 09:23:10;;;;;;;43.30;40.40;;;;;;;31.96;41.91;100966.91;5006149;28;20050;-81
2022/07/21 09:25:40;;;;;;;45.33;42.67;;;;;;;32.36;44.12;100961.44;5003766;28;20049;-81
2022/07/21 09:28:13;;;;;;;49.42;46.45;;;;;;;32.46;41.10;100955.47;5011877;28;20046;-80
2022/07/21 09:30:56;;;;;;;43.60;40.88;;;;;;;32.87;39.27;100967.25;5004433;28;20056;-80
2022/07/21 09:33:31;;;;;;;48.33;45.47;;;;;;;32.69;40.15;100966.75;5009280;28;20061;-80
2022/07/21 09:36:04;;;;;;;45.38;42.67;;;;;;;32.62;40.38;100955.56;4998767;28;20050;-81
2022/07/21 09:38:34;;;;;;;45.22;42.20;;;;;;;32.77;39.61;100951.22;5014028;28;20123;-82
2022/07/21 09:41:30;;;;;;;44.65;41.97;;;;;;;32.27;39.32;100955.28;5015757;28;20058;-81
2022/07/21 09:43:58;;;;;;;45.10;42.35;;;;;;;32.47;40.89;100951.59;4967088;28;20155;-80
2022/07/21 09:46:28;;;;;;;39.88;37.47;;;;;;;32.15;40.96;100943.19;4998169;28;20051;-80
2022/07/21 09:48:58;;;;;;;37.97;35.30;;;;;;;31.99;41.26;100941.50;5010499;28;20402;-81
2022/07/21 09:51:30;;;;;;;34.60;32.28;;;;;;;32.55;41.69;100942.41;5009093;28;20054;-81
2022/07/21 09:54:02;;;;;;;33.58;31.27;;;;;;;32.31;39.15;100946.00;5004913;28;20061;-81
2022/07/21 09:56:31;;;;;;;34.83;32.47;;;;;;;32.40;41.88;100938.41;5009228;28;20046;-80
2022/07/21 09:59:01;;;;;;;39.25;36.85;;;;;;;32.97;37.27;100938.41;5008563;28;20038;-80
2022/07/21 10:01:29;;;;;;;37.90;35.25;;;;;;;32.97;37.03;100943.91;5006443;28;20060;-80
2022/07/21 10:03:58;;;;;;;42.17;39.45;;;;;;;33.47;37.63;100942.47;5000262;28;20050;-80
2022/07/21 10:06:28;;;;;;;39.75;36.88;;;;;;;33.55;36.68;100932.47;5001231;28;20073;-81
2022/07/21 10:08:59;;;;;;;33.03;30.30;;;;;;;33.58;36.73;100935.28;5005178;28;20086;-80
2022/07/21 10:11:33;;;;;;;33.72;31.42;;;;;;;33.27;36.62;100930.56;5010080;28;20458;-80
2022/07/21 10:14:03;;;;;;;36.83;33.97;;;;;;;33.45;36.46;100931.03;5019292;28;20054;-81
2022/07/21 10:16:30;;;;;;;35.60;33.00;;;;;;;33.34;35.82;100925.25;5007889;28;20042;-81
2022/07/21 10:19:01;;;;;;;33.00;30.52;;;;;;;33.48;36.74;100922.84;5005524;28;20084;-84
2022/07/21 10:21:40;;;;;;;36.38;33.67;;;;;;;33.43;36.50;100927.81;5012277;28;20046;-81
2022/07/21 10:24:11;;;;;;;35.33;32.72;;;;;;;33.64;34.76;100925.59;5007725;28;20054;-79
2022/07/21 10:26:38;;;;;;;35.95;33.42;;;;;;;33.75;37.03;100918.38;5010777;28;20394;-83
2022/07/21 10:29:06;;;;;;;37.97;35.38;;;;;;;33.88;34.90;100919.06;5007025;28;20050;-79
2022/07/21 10:31:42;;;;;;;34.97;32.58;;;;;;;34.32;35.70;100920.81;5010430;28;20054;-81
2022/07/21 10:34:10;;;;;;;39.20;36.47;;;;;;;33.80;34.16;100911.81;5004243;28;20443;-80
2022/07/21 10:36:46;;;;;;;33.97;31.17;;;;;;;32.67;38.60;100927.81;5019356;28;20076;-81
2022/07/21 10:39:25;;;;;;;33.60;30.90;;;;;;;33.18;38.21;100914.25;5006852;28;20082;-80
2022/07/21 10:41:55;;;;;;;33.22;30.73;;;;;;;32.68;39.09;100915.66;5013572;28;20061;-80
2022/07/21 10:44:44;;;;;;;33.05;30.55;;;;;;;32.13;39.56;100918.00;5014138;28;20057;-79
2022/07/21 10:47:12;;;;;;;32.42;29.67;;;;;;;33.40;36.66;100912.00;5010097;28;20077;-80
2022/07/21 10:49:51;;;;;;;36.20;33.33;;;;;;;33.55;35.18;100910.44;5004318;28;20057;-81
2022/07/21 10:52:57;;;;;;;34.97;32.28;;;;;;;33.49;37.61;100904.38;5006168;28;20061;-81
2022/07/21 10:55:27;;;;;;;32.03;29.83;;;;;;;32.42;39.78;100907.84;4954770;29;20055;-79
2022/07/21 10:58:18;;;;;;;30.17;27.63;;;;;;;32.92;38.44;100902.91;4956316;29;20097;-79
2022/07/21 11:00:50;;;;;;;30.30;27.80;;;;;;;34.19;37.33;100907.19;4982858;28;20043;-82
2022/07/21 11:03:23;;;;;;;30.77;28.38;;;;;;;34.41;33.99;100905.66;5015776;28;20050;-81
2022/07/21 11:06:23;;;;;;;30.50;27.67;;;;;;;33.76;34.98;100902.66;5011150;28;20083;-82
2022/07/21 11:08:51;;;;;;;32.00;29.60;;;;;;;33.58;37.58;100902.25;5001606;28;20113;-82
2022/07/21 11:11:20;;;;;;;31.40;28.98;;;;;;;33.20;38.29;100895.44;5009765;28;20050;-82
2022/07/21 11:14:15;;;;;;;32.20;29.63;;;;;;;34.52;37.51;100897.56;5004573;28;20442;-83
2022/07/21 11:17:02;;;;;;;34.88;32.60;;;;;;;33.94;38.72;100889.28;4985763;28;20069;-81